Карточка аэропорта UIBB

Внимание!
Информация на этой странице в стадии наполнения.
Если вы не увидели какой-то информации, или заметили неточность - пожалуйста сообщите нам!
Спасибо!
Команда RU-STAFF
Название аэропортаБратск
Название аэропорта (англ.)Bratsk
Превышение1611 ft. (491 m.)
Координаты56°22.236', 101°41.94'
Высота перехода900m
Эшелон переходаQFE>=715mm:FL060; QFE<715=>688:FL070; QFE<688:FL080
Коды ответчика3301-3327
Зона ОрВДИркутск РПИ (UIII)
Данные METARUIBB 090900Z 15001MPS 9000 -SN SCT027 M09/M11 Q1010 R30/490534 NOSIG RMK QFE714/0953
Проноз погоды (TAF)UIBB 090800Z 0909/1009 34003MPS 9999 -SHSN SCT016CB TEMPO 0909/1003 1900 SHSN BR
NOTAMshow/hide NOTAM
AWOS   TABLE

Информация о ВПП


Диспетчерские позиции

Позывной Наименование органа УВД Частота
UIBB_APPБратск-Подход118.1
UIBB_TWRБратск-Вышка121.8



Спутниковое изображение